sensor_id;sensor_type;location;lat;lon;timestamp;P1;durP1;ratioP1;P2;durP2;ratioP2
67941;SDS011;54731;42.600;23.476;2023-01-20T00:01:49;3.63;;;1.77;;
67941;SDS011;54731;42.600;23.476;2023-01-20T00:04:14;2.93;;;0.60;;
67941;SDS011;54731;42.600;23.476;2023-01-20T00:06:40;18.52;;;8.25;;
67941;SDS011;54731;42.600;23.476;2023-01-20T00:09:05;3.87;;;1.43;;
67941;SDS011;54731;42.600;23.476;2023-01-20T00:11:31;6.27;;;2.37;;
67941;SDS011;54731;42.600;23.476;2023-01-20T00:13:57;1.25;;;0.50;;
67941;SDS011;54731;42.600;23.476;2023-01-20T00:16:24;1.90;;;0.50;;
67941;SDS011;54731;42.600;23.476;2023-01-20T00:18:50;2.53;;;0.32;;
67941;SDS011;54731;42.600;23.476;2023-01-20T00:21:17;2.42;;;0.60;;
67941;SDS011;54731;42.600;23.476;2023-01-20T00:23:43;0.50;;;0.10;;
67941;SDS011;54731;42.600;23.476;2023-01-20T00:26:16;2.28;;;0.40;;
67941;SDS011;54731;42.600;23.476;2023-01-20T00:28:42;0.93;;;0.22;;
67941;SDS011;54731;42.600;23.476;2023-01-20T00:33:38;2.92;;;0.68;;
67941;SDS011;54731;42.600;23.476;2023-01-20T00:36:03;10.18;;;3.22;;
67941;SDS011;54731;42.600;23.476;2023-01-20T00:38:29;3.63;;;1.10;;
67941;SDS011;54731;42.600;23.476;2023-01-20T00:40:55;0.63;;;0.30;;
67941;SDS011;54731;42.600;23.476;2023-01-20T00:43:20;0.50;;;0.10;;
67941;SDS011;54731;42.600;23.476;2023-01-20T00:45:46;0.45;;;0.10;;
67941;SDS011;54731;42.600;23.476;2023-01-20T00:48:11;0.90;;;0.70;;
67941;SDS011;54731;42.600;23.476;2023-01-20T00:50:37;0.80;;;0.33;;
67941;SDS011;54731;42.600;23.476;2023-01-20T00:53:02;0.63;;;0.27;;
67941;SDS011;54731;42.600;23.476;2023-01-20T00:55:27;1.75;;;0.15;;
67941;SDS011;54731;42.600;23.476;2023-01-20T00:57:53;0.30;;;0.10;;
67941;SDS011;54731;42.600;23.476;2023-01-20T01:00:18;0.60;;;0.17;;
67941;SDS011;54731;42.600;23.476;2023-01-20T01:02:43;0.80;;;0.50;;
67941;SDS011;54731;42.600;23.476;2023-01-20T01:05:09;0.80;;;0.10;;
67941;SDS011;54731;42.600;23.476;2023-01-20T01:07:34;0.17;;;0.10;;
67941;SDS011;54731;42.600;23.476;2023-01-20T01:09:59;0.73;;;0.40;;
67941;SDS011;54731;42.600;23.476;2023-01-20T01:12:25;0.50;;;0.30;;
67941;SDS011;54731;42.600;23.476;2023-01-20T01:14:50;1.20;;;0.10;;
67941;SDS011;54731;42.600;23.476;2023-01-20T01:17:15;0.30;;;0.10;;
67941;SDS011;54731;42.600;23.476;2023-01-20T01:19:41;0.40;;;0.17;;
67941;SDS011;54731;42.600;23.476;2023-01-20T01:22:06;0.10;;;0.10;;
67941;SDS011;54731;42.600;23.476;2023-01-20T01:24:31;1.07;;;0.20;;
67941;SDS011;54731;42.600;23.476;2023-01-20T01:26:56;2.70;;;0.37;;
67941;SDS011;54731;42.600;23.476;2023-01-20T01:29:22;0.50;;;0.30;;
67941;SDS011;54731;42.600;23.476;2023-01-20T01:31:47;1.70;;;0.47;;
67941;SDS011;54731;42.600;23.476;2023-01-20T01:34:12;1.10;;;0.40;;
67941;SDS011;54731;42.600;23.476;2023-01-20T01:36:38;0.30;;;0.10;;
67941;SDS011;54731;42.600;23.476;2023-01-20T01:39:03;0.30;;;0.10;;
67941;SDS011;54731;42.600;23.476;2023-01-20T01:41:28;0.20;;;0.10;;
67941;SDS011;54731;42.600;23.476;2023-01-20T01:44:05;0.10;;;0.10;;
67941;SDS011;54731;42.600;23.476;2023-01-20T01:46:35;0.43;;;0.10;;
67941;SDS011;54731;42.600;23.476;2023-01-20T01:49:11;0.60;;;0.10;;
67941;SDS011;54731;42.600;23.476;2023-01-20T01:51:45;0.10;;;0.10;;
67941;SDS011;54731;42.600;23.476;2023-01-20T01:54:16;0.28;;;0.20;;
67941;SDS011;54731;42.600;23.476;2023-01-20T01:56:45;0.20;;;0.10;;
67941;SDS011;54731;42.600;23.476;2023-01-20T01:59:13;0.30;;;0.05;;
67941;SDS011;54731;42.600;23.476;2023-01-20T02:01:40;0.10;;;0.10;;
67941;SDS011;54731;42.600;23.476;2023-01-20T02:04:10;0.23;;;0.10;;
67941;SDS011;54731;42.600;23.476;2023-01-20T02:06:41;0.10;;;0.10;;
67941;SDS011;54731;42.600;23.476;2023-01-20T02:09:09;1.10;;;0.52;;
67941;SDS011;54731;42.600;23.476;2023-01-20T02:11:42;0.50;;;0.20;;
67941;SDS011;54731;42.600;23.476;2023-01-20T02:14:09;0.40;;;0.10;;
67941;SDS011;54731;42.600;23.476;2023-01-20T02:16:43;0.15;;;0.08;;
67941;SDS011;54731;42.600;23.476;2023-01-20T02:27:13;6.38;;;2.60;;
67941;SDS011;54731;42.600;23.476;2023-01-20T02:30:09;2.63;;;0.82;;
67941;SDS011;54731;42.600;23.476;2023-01-20T02:35:36;0.75;;;0.10;;
67941;SDS011;54731;42.600;23.476;2023-01-20T02:41:09;0.20;;;0.10;;
67941;SDS011;54731;42.600;23.476;2023-01-20T02:46:13;2.25;;;0.20;;
67941;SDS011;54731;42.600;23.476;2023-01-20T02:48:45;0.90;;;0.10;;
67941;SDS011;54731;42.600;23.476;2023-01-20T02:51:20;0.47;;;0.10;;
67941;SDS011;54731;42.600;23.476;2023-01-20T02:56:21;1.65;;;0.10;;
67941;SDS011;54731;42.600;23.476;2023-01-20T02:58:51;0.47;;;0.10;;
67941;SDS011;54731;42.600;23.476;2023-01-20T03:01:25;1.30;;;0.70;;
67941;SDS011;54731;42.600;23.476;2023-01-20T03:03:55;0.60;;;0.17;;
67941;SDS011;54731;42.600;23.476;2023-01-20T03:06:24;0.85;;;0.10;;
67941;SDS011;54731;42.600;23.476;2023-01-20T03:08:54;0.85;;;0.20;;
67941;SDS011;54731;42.600;23.476;2023-01-20T03:11:21;0.35;;;0.10;;
67941;SDS011;54731;42.600;23.476;2023-01-20T03:13:54;0.17;;;0.10;;
67941;SDS011;54731;42.600;23.476;2023-01-20T03:16:26;0.20;;;0.20;;
67941;SDS011;54731;42.600;23.476;2023-01-20T03:18:52;0.32;;;0.10;;
67941;SDS011;54731;42.600;23.476;2023-01-20T03:21:19;0.40;;;0.10;;
67941;SDS011;54731;42.600;23.476;2023-01-20T03:23:45;0.30;;;0.10;;
67941;SDS011;54731;42.600;23.476;2023-01-20T03:26:14;1.48;;;0.10;;
67941;SDS011;54731;42.600;23.476;2023-01-20T03:28:41;2.17;;;0.10;;
67941;SDS011;54731;42.600;23.476;2023-01-20T03:33:48;1.60;;;0.20;;
67941;SDS011;54731;42.600;23.476;2023-01-20T03:36:15;2.13;;;0.80;;
67941;SDS011;54731;42.600;23.476;2023-01-20T03:38:42;0.40;;;0.10;;
67941;SDS011;54731;42.600;23.476;2023-01-20T03:52:41;0.57;;;0.20;;
67941;SDS011;54731;42.600;23.476;2023-01-20T03:55:20;1.08;;;0.10;;
67941;SDS011;54731;42.600;23.476;2023-01-20T03:57:52;0.63;;;0.10;;
67941;SDS011;54731;42.600;23.476;2023-01-20T04:00:29;0.70;;;0.10;;
67941;SDS011;54731;42.600;23.476;2023-01-20T04:02:57;1.35;;;0.10;;
67941;SDS011;54731;42.600;23.476;2023-01-20T04:05:26;0.22;;;0.10;;
67941;SDS011;54731;42.600;23.476;2023-01-20T04:07:52;0.55;;;0.10;;
67941;SDS011;54731;42.600;23.476;2023-01-20T04:10:21;0.30;;;0.10;;
67941;SDS011;54731;42.600;23.476;2023-01-20T04:12:49;1.25;;;0.30;;
67941;SDS011;54731;42.600;23.476;2023-01-20T04:15:14;0.93;;;0.20;;
67941;SDS011;54731;42.600;23.476;2023-01-20T04:17:41;1.93;;;0.30;;
67941;SDS011;54731;42.600;23.476;2023-01-20T04:20:07;2.70;;;0.90;;
67941;SDS011;54731;42.600;23.476;2023-01-20T04:22:44;2.08;;;0.22;;
67941;SDS011;54731;42.600;23.476;2023-01-20T04:27:49;2.03;;;0.90;;
67941;SDS011;54731;42.600;23.476;2023-01-20T04:30:14;2.03;;;0.83;;
67941;SDS011;54731;42.600;23.476;2023-01-20T04:32:39;6.17;;;3.07;;
67941;SDS011;54731;42.600;23.476;2023-01-20T04:35:05;11.70;;;6.83;;
67941;SDS011;54731;42.600;23.476;2023-01-20T04:37:30;17.50;;;11.13;;
67941;SDS011;54731;42.600;23.476;2023-01-20T04:39:56;9.73;;;6.00;;
67941;SDS011;54731;42.600;23.476;2023-01-20T04:42:21;3.40;;;1.80;;
67941;SDS011;54731;42.600;23.476;2023-01-20T04:44:46;1.60;;;0.73;;
67941;SDS011;54731;42.600;23.476;2023-01-20T04:47:12;1.00;;;0.50;;
67941;SDS011;54731;42.600;23.476;2023-01-20T04:49:37;1.17;;;0.30;;
67941;SDS011;54731;42.600;23.476;2023-01-20T04:52:02;12.83;;;7.30;;
67941;SDS011;54731;42.600;23.476;2023-01-20T04:54:28;5.63;;;3.40;;
67941;SDS011;54731;42.600;23.476;2023-01-20T04:56:53;7.57;;;3.00;;
67941;SDS011;54731;42.600;23.476;2023-01-20T04:59:18;2.97;;;1.33;;
67941;SDS011;54731;42.600;23.476;2023-01-20T05:01:44;1.57;;;0.53;;
67941;SDS011;54731;42.600;23.476;2023-01-20T05:04:09;1.23;;;0.77;;
67941;SDS011;54731;42.600;23.476;2023-01-20T05:06:34;0.87;;;0.10;;
67941;SDS011;54731;42.600;23.476;2023-01-20T05:09:00;0.20;;;0.10;;
67941;SDS011;54731;42.600;23.476;2023-01-20T05:11:25;1.77;;;0.30;;
67941;SDS011;54731;42.600;23.476;2023-01-20T05:13:50;0.97;;;0.40;;
67941;SDS011;54731;42.600;23.476;2023-01-20T05:16:16;1.77;;;1.00;;
67941;SDS011;54731;42.600;23.476;2023-01-20T05:18:41;63.97;;;20.70;;
67941;SDS011;54731;42.600;23.476;2023-01-20T05:21:06;35.87;;;12.37;;
67941;SDS011;54731;42.600;23.476;2023-01-20T05:23:32;16.83;;;7.63;;
67941;SDS011;54731;42.600;23.476;2023-01-20T05:25:57;20.30;;;8.43;;
67941;SDS011;54731;42.600;23.476;2023-01-20T05:28:22;7.33;;;3.67;;
67941;SDS011;54731;42.600;23.476;2023-01-20T05:30:48;6.67;;;2.00;;
67941;SDS011;54731;42.600;23.476;2023-01-20T05:33:14;3.45;;;0.70;;
67941;SDS011;54731;42.600;23.476;2023-01-20T05:35:39;5.77;;;2.03;;
67941;SDS011;54731;42.600;23.476;2023-01-20T05:38:04;3.75;;;0.50;;
67941;SDS011;54731;42.600;23.476;2023-01-20T05:40:30;2.85;;;0.25;;
67941;SDS011;54731;42.600;23.476;2023-01-20T05:42:59;6.70;;;3.63;;
67941;SDS011;54731;42.600;23.476;2023-01-20T05:45:25;11.00;;;4.65;;
67941;SDS011;54731;42.600;23.476;2023-01-20T05:47:54;4.33;;;2.30;;
67941;SDS011;54731;42.600;23.476;2023-01-20T05:50:20;2.72;;;0.57;;
67941;SDS011;54731;42.600;23.476;2023-01-20T05:52:45;1.00;;;0.20;;
67941;SDS011;54731;42.600;23.476;2023-01-20T05:55:10;0.80;;;0.50;;
67941;SDS011;54731;42.600;23.476;2023-01-20T05:57:35;3.13;;;0.40;;
67941;SDS011;54731;42.600;23.476;2023-01-20T06:00:01;1.10;;;0.27;;
67941;SDS011;54731;42.600;23.476;2023-01-20T06:02:28;11.38;;;4.28;;
67941;SDS011;54731;42.600;23.476;2023-01-20T06:04:54;5.57;;;2.40;;
67941;SDS011;54731;42.600;23.476;2023-01-20T06:07:19;1.50;;;0.97;;
67941;SDS011;54731;42.600;23.476;2023-01-20T06:09:45;0.20;;;0.10;;
67941;SDS011;54731;42.600;23.476;2023-01-20T06:12:10;0.70;;;0.30;;
67941;SDS011;54731;42.600;23.476;2023-01-20T06:14:35;3.00;;;1.07;;
67941;SDS011;54731;42.600;23.476;2023-01-20T06:17:01;8.60;;;3.57;;
67941;SDS011;54731;42.600;23.476;2023-01-20T06:19:26;1.67;;;0.47;;
67941;SDS011;54731;42.600;23.476;2023-01-20T06:21:51;0.70;;;0.20;;
67941;SDS011;54731;42.600;23.476;2023-01-20T06:24:17;1.00;;;0.20;;
67941;SDS011;54731;42.600;23.476;2023-01-20T06:26:42;1.53;;;0.40;;
67941;SDS011;54731;42.600;23.476;2023-01-20T06:29:07;3.25;;;0.52;;
67941;SDS011;54731;42.600;23.476;2023-01-20T06:31:33;3.63;;;1.60;;
67941;SDS011;54731;42.600;23.476;2023-01-20T06:33:58;2.63;;;0.50;;
67941;SDS011;54731;42.600;23.476;2023-01-20T06:36:23;0.73;;;0.40;;
67941;SDS011;54731;42.600;23.476;2023-01-20T06:38:49;5.37;;;1.97;;
67941;SDS011;54731;42.600;23.476;2023-01-20T06:41:14;8.17;;;2.73;;
67941;SDS011;54731;42.600;23.476;2023-01-20T06:43:40;1.85;;;0.40;;
67941;SDS011;54731;42.600;23.476;2023-01-20T06:46:06;3.13;;;0.43;;
67941;SDS011;54731;42.600;23.476;2023-01-20T06:48:34;0.60;;;0.20;;
67941;SDS011;54731;42.600;23.476;2023-01-20T06:51:03;2.20;;;0.83;;
67941;SDS011;54731;42.600;23.476;2023-01-20T06:53:30;2.00;;;1.20;;
67941;SDS011;54731;42.600;23.476;2023-01-20T06:55:56;1.93;;;0.30;;
67941;SDS011;54731;42.600;23.476;2023-01-20T06:58:23;2.28;;;0.20;;
67941;SDS011;54731;42.600;23.476;2023-01-20T07:00:49;0.80;;;0.20;;
67941;SDS011;54731;42.600;23.476;2023-01-20T07:03:15;0.93;;;0.37;;
67941;SDS011;54731;42.600;23.476;2023-01-20T07:05:40;0.60;;;0.20;;
67941;SDS011;54731;42.600;23.476;2023-01-20T07:08:05;1.92;;;0.80;;
67941;SDS011;54731;42.600;23.476;2023-01-20T07:10:31;1.07;;;0.47;;
67941;SDS011;54731;42.600;23.476;2023-01-20T07:12:56;1.00;;;0.20;;
67941;SDS011;54731;42.600;23.476;2023-01-20T07:15:21;0.30;;;0.20;;
67941;SDS011;54731;42.600;23.476;2023-01-20T07:17:47;0.10;;;0.10;;
67941;SDS011;54731;42.600;23.476;2023-01-20T07:20:12;0.13;;;0.10;;
67941;SDS011;54731;42.600;23.476;2023-01-20T07:22:37;0.30;;;0.10;;
67941;SDS011;54731;42.600;23.476;2023-01-20T07:25:03;0.20;;;0.10;;
67941;SDS011;54731;42.600;23.476;2023-01-20T07:27:28;4.88;;;0.20;;
67941;SDS011;54731;42.600;23.476;2023-01-20T07:29:53;0.40;;;0.30;;
67941;SDS011;54731;42.600;23.476;2023-01-20T07:32:19;1.60;;;0.97;;
67941;SDS011;54731;42.600;23.476;2023-01-20T07:34:44;2.20;;;0.30;;
67941;SDS011;54731;42.600;23.476;2023-01-20T07:37:09;0.53;;;0.37;;
67941;SDS011;54731;42.600;23.476;2023-01-20T07:39:35;0.90;;;0.40;;
67941;SDS011;54731;42.600;23.476;2023-01-20T07:42:00;4.13;;;0.90;;
67941;SDS011;54731;42.600;23.476;2023-01-20T07:44:26;1.23;;;0.43;;
67941;SDS011;54731;42.600;23.476;2023-01-20T07:46:51;1.13;;;0.57;;
67941;SDS011;54731;42.600;23.476;2023-01-20T07:49:16;1.13;;;0.27;;
67941;SDS011;54731;42.600;23.476;2023-01-20T07:51:41;2.40;;;1.33;;
67941;SDS011;54731;42.600;23.476;2023-01-20T07:54:07;2.30;;;1.10;;
67941;SDS011;54731;42.600;23.476;2023-01-20T07:56:35;1.45;;;0.38;;
67941;SDS011;54731;42.600;23.476;2023-01-20T07:59:00;1.87;;;0.30;;
67941;SDS011;54731;42.600;23.476;2023-01-20T08:01:27;1.10;;;0.98;;
67941;SDS011;54731;42.600;23.476;2023-01-20T08:03:54;1.35;;;0.50;;
67941;SDS011;54731;42.600;23.476;2023-01-20T08:06:21;1.08;;;0.50;;
67941;SDS011;54731;42.600;23.476;2023-01-20T08:08:47;2.20;;;1.10;;
67941;SDS011;54731;42.600;23.476;2023-01-20T08:11:13;4.20;;;2.10;;
67941;SDS011;54731;42.600;23.476;2023-01-20T08:13:40;6.72;;;2.85;;
67941;SDS011;54731;42.600;23.476;2023-01-20T08:16:06;5.77;;;3.20;;
67941;SDS011;54731;42.600;23.476;2023-01-20T08:18:34;20.92;;;13.45;;
67941;SDS011;54731;42.600;23.476;2023-01-20T08:21:00;15.32;;;10.50;;
67941;SDS011;54731;42.600;23.476;2023-01-20T08:23:26;10.13;;;9.10;;
67941;SDS011;54731;42.600;23.476;2023-01-20T08:25:58;5.17;;;4.20;;
67941;SDS011;54731;42.600;23.476;2023-01-20T08:28:25;7.55;;;4.28;;
67941;SDS011;54731;42.600;23.476;2023-01-20T08:30:50;4.82;;;3.20;;
67941;SDS011;54731;42.600;23.476;2023-01-20T08:33:16;11.27;;;4.70;;
67941;SDS011;54731;42.600;23.476;2023-01-20T08:35:41;7.73;;;3.40;;
67941;SDS011;54731;42.600;23.476;2023-01-20T08:38:06;2.73;;;1.93;;
67941;SDS011;54731;42.600;23.476;2023-01-20T08:40:32;8.65;;;3.78;;
67941;SDS011;54731;42.600;23.476;2023-01-20T08:42:57;5.85;;;3.45;;
67941;SDS011;54731;42.600;23.476;2023-01-20T08:45:23;3.10;;;1.80;;
67941;SDS011;54731;42.600;23.476;2023-01-20T08:47:48;5.73;;;1.70;;
67941;SDS011;54731;42.600;23.476;2023-01-20T08:50:14;4.07;;;1.40;;
67941;SDS011;54731;42.600;23.476;2023-01-20T08:52:40;117.13;;;29.20;;
67941;SDS011;54731;42.600;23.476;2023-01-20T08:55:06;13.23;;;4.45;;
67941;SDS011;54731;42.600;23.476;2023-01-20T08:57:32;9.77;;;4.07;;
67941;SDS011;54731;42.600;23.476;2023-01-20T08:59:57;2.95;;;1.10;;
67941;SDS011;54731;42.600;23.476;2023-01-20T09:02:22;3.07;;;0.90;;
67941;SDS011;54731;42.600;23.476;2023-01-20T09:04:48;3.83;;;1.10;;
67941;SDS011;54731;42.600;23.476;2023-01-20T09:07:14;4.78;;;1.67;;
67941;SDS011;54731;42.600;23.476;2023-01-20T09:09:41;9.93;;;3.87;;
67941;SDS011;54731;42.600;23.476;2023-01-20T09:12:06;3.88;;;1.50;;
67941;SDS011;54731;42.600;23.476;2023-01-20T09:14:32;3.50;;;0.70;;
67941;SDS011;54731;42.600;23.476;2023-01-20T09:16:57;3.95;;;1.23;;
67941;SDS011;54731;42.600;23.476;2023-01-20T09:19:23;4.40;;;1.60;;
67941;SDS011;54731;42.600;23.476;2023-01-20T09:21:48;4.97;;;2.20;;
67941;SDS011;54731;42.600;23.476;2023-01-20T09:24:13;3.83;;;1.47;;
67941;SDS011;54731;42.600;23.476;2023-01-20T09:26:39;3.87;;;1.30;;
67941;SDS011;54731;42.600;23.476;2023-01-20T09:29:06;3.75;;;1.70;;
67941;SDS011;54731;42.600;23.476;2023-01-20T09:31:34;2.00;;;1.10;;
67941;SDS011;54731;42.600;23.476;2023-01-20T09:34:03;2.83;;;1.15;;
67941;SDS011;54731;42.600;23.476;2023-01-20T09:36:29;2.60;;;1.17;;
67941;SDS011;54731;42.600;23.476;2023-01-20T09:38:54;2.60;;;1.60;;
67941;SDS011;54731;42.600;23.476;2023-01-20T09:41:29;6.57;;;1.50;;
67941;SDS011;54731;42.600;23.476;2023-01-20T09:46:29;5.37;;;2.00;;
67941;SDS011;54731;42.600;23.476;2023-01-20T09:54:55;1.00;;;0.20;;
67941;SDS011;54731;42.600;23.476;2023-01-20T09:57:26;5.13;;;1.48;;
67941;SDS011;54731;42.600;23.476;2023-01-20T10:00:02;3.17;;;0.80;;
67941;SDS011;54731;42.600;23.476;2023-01-20T10:02:33;4.43;;;1.10;;
67941;SDS011;54731;42.600;23.476;2023-01-20T10:05:00;2.10;;;0.70;;
67941;SDS011;54731;42.600;23.476;2023-01-20T10:10:19;2.67;;;0.70;;
67941;SDS011;54731;42.600;23.476;2023-01-20T10:12:52;3.23;;;0.90;;
67941;SDS011;54731;42.600;23.476;2023-01-20T10:15:27;4.38;;;1.40;;
67941;SDS011;54731;42.600;23.476;2023-01-20T10:20:42;1.73;;;0.85;;
67941;SDS011;54731;42.600;23.476;2023-01-20T10:26:08;2.87;;;1.97;;
67941;SDS011;54731;42.600;23.476;2023-01-20T10:28:40;3.13;;;0.93;;
67941;SDS011;54731;42.600;23.476;2023-01-20T10:31:09;1.10;;;0.32;;
67941;SDS011;54731;42.600;23.476;2023-01-20T10:33:39;1.25;;;0.82;;
67941;SDS011;54731;42.600;23.476;2023-01-20T10:36:13;1.50;;;1.10;;
67941;SDS011;54731;42.600;23.476;2023-01-20T10:38:58;3.17;;;0.30;;
67941;SDS011;54731;42.600;23.476;2023-01-20T10:44:14;9.52;;;3.45;;
67941;SDS011;54731;42.600;23.476;2023-01-20T10:58:13;2.60;;;0.98;;
67941;SDS011;54731;42.600;23.476;2023-01-20T11:00:47;11.23;;;4.60;;
67941;SDS011;54731;42.600;23.476;2023-01-20T11:03:14;5.70;;;2.07;;
67941;SDS011;54731;42.600;23.476;2023-01-20T11:05:41;5.10;;;2.17;;
67941;SDS011;54731;42.600;23.476;2023-01-20T11:08:09;1.58;;;0.80;;
67941;SDS011;54731;42.600;23.476;2023-01-20T11:10:41;4.78;;;2.10;;
67941;SDS011;54731;42.600;23.476;2023-01-20T11:13:07;5.95;;;1.90;;
67941;SDS011;54731;42.600;23.476;2023-01-20T11:15:34;5.35;;;2.50;;
67941;SDS011;54731;42.600;23.476;2023-01-20T11:25:58;5.25;;;2.40;;
67941;SDS011;54731;42.600;23.476;2023-01-20T11:28:25;4.10;;;1.30;;
67941;SDS011;54731;42.600;23.476;2023-01-20T11:30:56;2.50;;;1.20;;
67941;SDS011;54731;42.600;23.476;2023-01-20T11:36:00;3.90;;;2.13;;
67941;SDS011;54731;42.600;23.476;2023-01-20T11:38:31;7.07;;;2.50;;
67941;SDS011;54731;42.600;23.476;2023-01-20T11:41:01;5.68;;;2.00;;
67941;SDS011;54731;42.600;23.476;2023-01-20T11:43:27;5.37;;;1.60;;
67941;SDS011;54731;42.600;23.476;2023-01-20T11:46:10;3.92;;;1.10;;
67941;SDS011;54731;42.600;23.476;2023-01-20T11:48:37;4.53;;;1.55;;
67941;SDS011;54731;42.600;23.476;2023-01-20T11:51:02;3.80;;;1.60;;
67941;SDS011;54731;42.600;23.476;2023-01-20T11:53:29;3.30;;;1.85;;
67941;SDS011;54731;42.600;23.476;2023-01-20T11:55:56;4.15;;;1.30;;
67941;SDS011;54731;42.600;23.476;2023-01-20T11:58:28;4.80;;;1.83;;
67941;SDS011;54731;42.600;23.476;2023-01-20T12:01:03;73.72;;;31.85;;
67941;SDS011;54731;42.600;23.476;2023-01-20T12:03:37;29.13;;;15.25;;
67941;SDS011;54731;42.600;23.476;2023-01-20T12:06:16;14.93;;;5.30;;
67941;SDS011;54731;42.600;23.476;2023-01-20T12:11:34;2.90;;;1.95;;
67941;SDS011;54731;42.600;23.476;2023-01-20T12:14:13;0.73;;;0.20;;
67941;SDS011;54731;42.600;23.476;2023-01-20T12:16:41;0.20;;;0.10;;
67941;SDS011;54731;42.600;23.476;2023-01-20T12:19:10;0.10;;;0.10;;
67941;SDS011;54731;42.600;23.476;2023-01-20T12:21:42;0.40;;;0.20;;
67941;SDS011;54731;42.600;23.476;2023-01-20T12:26:59;1.60;;;0.40;;
67941;SDS011;54731;42.600;23.476;2023-01-20T12:29:27;1.33;;;0.30;;
67941;SDS011;54731;42.600;23.476;2023-01-20T12:31:59;1.63;;;0.40;;
67941;SDS011;54731;42.600;23.476;2023-01-20T12:34:28;1.97;;;0.70;;
67941;SDS011;54731;42.600;23.476;2023-01-20T12:40:02;6.43;;;3.60;;
67941;SDS011;54731;42.600;23.476;2023-01-20T12:51:34;3.45;;;1.90;;
67941;SDS011;54731;42.600;23.476;2023-01-20T13:07:36;3.47;;;1.80;;
67941;SDS011;54731;42.600;23.476;2023-01-20T13:12:54;7.93;;;4.30;;
67941;SDS011;54731;42.600;23.476;2023-01-20T13:18:05;3.35;;;1.38;;
67941;SDS011;54731;42.600;23.476;2023-01-20T13:20:37;4.22;;;2.03;;
67941;SDS011;54731;42.600;23.476;2023-01-20T13:23:04;2.47;;;1.17;;
67941;SDS011;54731;42.600;23.476;2023-01-20T13:25:31;3.97;;;1.70;;
67941;SDS011;54731;42.600;23.476;2023-01-20T13:27:57;4.25;;;1.70;;
67941;SDS011;54731;42.600;23.476;2023-01-20T13:33:04;7.28;;;3.05;;
67941;SDS011;54731;42.600;23.476;2023-01-20T13:35:40;4.82;;;2.33;;
67941;SDS011;54731;42.600;23.476;2023-01-20T13:38:27;2.40;;;1.73;;
67941;SDS011;54731;42.600;23.476;2023-01-20T13:40:55;4.43;;;2.05;;
67941;SDS011;54731;42.600;23.476;2023-01-20T13:45:48;3.13;;;1.57;;
67941;SDS011;54731;42.600;23.476;2023-01-20T13:48:34;10.60;;;4.43;;
67941;SDS011;54731;42.600;23.476;2023-01-20T13:51:46;9.98;;;3.90;;
67941;SDS011;54731;42.600;23.476;2023-01-20T13:53:52;12.33;;;4.87;;
67941;SDS011;54731;42.600;23.476;2023-01-20T13:58:56;7.00;;;3.03;;
67941;SDS011;54731;42.600;23.476;2023-01-20T14:01:21;9.48;;;3.75;;
67941;SDS011;54731;42.600;23.476;2023-01-20T14:06:28;20.13;;;9.23;;
67941;SDS011;54731;42.600;23.476;2023-01-20T14:08:54;22.90;;;9.05;;
67941;SDS011;54731;42.600;23.476;2023-01-20T14:11:21;52.83;;;16.50;;
67941;SDS011;54731;42.600;23.476;2023-01-20T14:13:55;25.33;;;9.60;;
67941;SDS011;54731;42.600;23.476;2023-01-20T14:21:41;17.42;;;10.05;;
67941;SDS011;54731;42.600;23.476;2023-01-20T14:29:42;20.38;;;9.88;;
67941;SDS011;54731;42.600;23.476;2023-01-20T14:34:51;22.77;;;8.35;;
67941;SDS011;54731;42.600;23.476;2023-01-20T14:39:56;12.90;;;8.07;;
67941;SDS011;54731;42.600;23.476;2023-01-20T14:42:25;16.65;;;8.73;;
67941;SDS011;54731;42.600;23.476;2023-01-20T14:44:53;25.92;;;11.85;;
67941;SDS011;54731;42.600;23.476;2023-01-20T14:47:20;40.85;;;18.40;;
67941;SDS011;54731;42.600;23.476;2023-01-20T14:49:47;25.42;;;13.93;;
67941;SDS011;54731;42.600;23.476;2023-01-20T14:52:26;42.13;;;19.60;;
67941;SDS011;54731;42.600;23.476;2023-01-20T14:54:54;112.57;;;33.40;;
67941;SDS011;54731;42.600;23.476;2023-01-20T14:57:27;48.08;;;20.48;;
67941;SDS011;54731;42.600;23.476;2023-01-20T15:02:41;87.05;;;32.28;;
67941;SDS011;54731;42.600;23.476;2023-01-20T15:05:30;31.10;;;12.50;;
67941;SDS011;54731;42.600;23.476;2023-01-20T15:10:35;20.25;;;9.68;;
67941;SDS011;54731;42.600;23.476;2023-01-20T15:13:01;23.92;;;11.48;;
67941;SDS011;54731;42.600;23.476;2023-01-20T15:15:32;33.53;;;15.17;;
67941;SDS011;54731;42.600;23.476;2023-01-20T15:20:36;67.07;;;25.20;;
67941;SDS011;54731;42.600;23.476;2023-01-20T15:25:45;14.10;;;8.68;;
67941;SDS011;54731;42.600;23.476;2023-01-20T15:30:45;16.75;;;7.65;;
67941;SDS011;54731;42.600;23.476;2023-01-20T15:33:10;7.07;;;3.40;;
67941;SDS011;54731;42.600;23.476;2023-01-20T15:35:35;12.87;;;5.20;;
67941;SDS011;54731;42.600;23.476;2023-01-20T15:38:01;9.97;;;4.17;;
67941;SDS011;54731;42.600;23.476;2023-01-20T15:40:26;12.33;;;5.20;;
67941;SDS011;54731;42.600;23.476;2023-01-20T15:42:51;15.10;;;6.43;;
67941;SDS011;54731;42.600;23.476;2023-01-20T15:45:17;18.07;;;8.23;;
67941;SDS011;54731;42.600;23.476;2023-01-20T15:47:43;24.48;;;10.95;;
67941;SDS011;54731;42.600;23.476;2023-01-20T15:50:13;18.33;;;8.57;;
67941;SDS011;54731;42.600;23.476;2023-01-20T15:52:41;24.73;;;8.93;;
67941;SDS011;54731;42.600;23.476;2023-01-20T15:55:07;40.13;;;13.57;;
67941;SDS011;54731;42.600;23.476;2023-01-20T15:57:36;13.68;;;6.78;;
67941;SDS011;54731;42.600;23.476;2023-01-20T16:00:02;25.80;;;10.48;;
67941;SDS011;54731;42.600;23.476;2023-01-20T16:02:28;76.13;;;24.17;;
67941;SDS011;54731;42.600;23.476;2023-01-20T16:04:53;40.27;;;13.83;;
67941;SDS011;54731;42.600;23.476;2023-01-20T16:07:19;41.03;;;14.45;;
67941;SDS011;54731;42.600;23.476;2023-01-20T16:09:45;38.03;;;14.30;;
67941;SDS011;54731;42.600;23.476;2023-01-20T16:12:14;17.67;;;9.35;;
67941;SDS011;54731;42.600;23.476;2023-01-20T16:14:41;33.28;;;14.35;;
67941;SDS011;54731;42.600;23.476;2023-01-20T16:17:12;17.50;;;10.70;;
67941;SDS011;54731;42.600;23.476;2023-01-20T16:19:40;23.50;;;11.35;;
67941;SDS011;54731;42.600;23.476;2023-01-20T16:22:05;42.95;;;15.60;;
67941;SDS011;54731;42.600;23.476;2023-01-20T16:24:31;24.75;;;12.30;;
67941;SDS011;54731;42.600;23.476;2023-01-20T16:26:56;28.20;;;14.70;;
67941;SDS011;54731;42.600;23.476;2023-01-20T16:29:22;25.47;;;12.73;;
67941;SDS011;54731;42.600;23.476;2023-01-20T16:31:47;33.83;;;14.80;;
67941;SDS011;54731;42.600;23.476;2023-01-20T16:34:12;22.43;;;10.20;;
67941;SDS011;54731;42.600;23.476;2023-01-20T16:36:37;20.55;;;10.95;;
67941;SDS011;54731;42.600;23.476;2023-01-20T16:39:03;39.37;;;16.73;;
67941;SDS011;54731;42.600;23.476;2023-01-20T16:41:28;35.97;;;16.33;;
67941;SDS011;54731;42.600;23.476;2023-01-20T16:43:54;27.70;;;14.97;;
67941;SDS011;54731;42.600;23.476;2023-01-20T16:48:46;41.08;;;18.75;;
67941;SDS011;54731;42.600;23.476;2023-01-20T16:51:12;38.70;;;22.00;;
67941;SDS011;54731;42.600;23.476;2023-01-20T16:53:39;42.97;;;19.60;;
67941;SDS011;54731;42.600;23.476;2023-01-20T16:56:04;34.50;;;15.60;;
67941;SDS011;54731;42.600;23.476;2023-01-20T16:58:30;24.08;;;12.60;;
67941;SDS011;54731;42.600;23.476;2023-01-20T17:00:55;21.10;;;11.60;;
67941;SDS011;54731;42.600;23.476;2023-01-20T17:03:24;18.33;;;9.50;;
67941;SDS011;54731;42.600;23.476;2023-01-20T17:05:50;17.48;;;9.20;;
67941;SDS011;54731;42.600;23.476;2023-01-20T17:08:15;12.10;;;7.50;;
67941;SDS011;54731;42.600;23.476;2023-01-20T17:10:45;14.63;;;9.27;;